createdAt,value
2022-11-04T00:00:31.825Z,100234.22
2022-11-04T00:02:58.476Z,100236.69
2022-11-04T00:05:25.005Z,100234.34
2022-11-04T00:08:09.873Z,100243.72
2022-11-04T00:10:54.720Z,100250.94
2022-11-04T00:13:21.277Z,100254.66
2022-11-04T00:16:06.342Z,100249.63
2022-11-04T00:18:32.801Z,100258.72
2022-11-04T00:21:22.042Z,100256.34
2022-11-04T00:24:07.288Z,100253.69
2022-11-04T00:26:52.622Z,100256.06
2022-11-04T00:29:19.304Z,100260.91
2022-11-04T00:32:04.328Z,100266.22
2022-11-04T00:34:30.967Z,100269.19
2022-11-04T00:36:57.446Z,100271.84
2022-11-04T00:39:23.873Z,100274.03
2022-11-04T00:41:50.427Z,100282.78
2022-11-04T00:44:16.856Z,100279.66
2022-11-04T00:46:43.434Z,100284.19
2022-11-04T00:49:10.311Z,100292.16
2022-11-04T00:51:37.044Z,100284.50
2022-11-04T00:54:03.635Z,100291.69
2022-11-04T00:56:30.122Z,100291.53
2022-11-04T00:58:59.604Z,100296.34
2022-11-04T01:01:26.557Z,100298.53
2022-11-04T01:03:54.129Z,100300.72
2022-11-04T01:06:23.206Z,100307.41
2022-11-04T01:08:54.933Z,100316.47
2022-11-04T01:11:21.599Z,100322.56
2022-11-04T01:13:50.832Z,100322.56
2022-11-04T01:16:17.974Z,100335.09
2022-11-04T01:18:44.708Z,100332.44
2022-11-04T01:21:13.833Z,100338.06
2022-11-04T01:23:41.492Z,100347.91
2022-11-04T01:26:09.993Z,100347.91
2022-11-04T01:28:36.691Z,100350.56
2022-11-04T01:31:07.541Z,100359.16
2022-11-04T01:33:34.319Z,100358.38
2022-11-04T01:36:01.471Z,100360.25
2022-11-04T01:38:28.715Z,100360.53
2022-11-04T01:40:55.281Z,100372.56
2022-11-04T01:43:23.633Z,100374.75
2022-11-04T01:45:59.478Z,100381.44
2022-11-04T01:48:31.883Z,100389.22
2022-11-04T01:51:00.320Z,100385.59
2022-11-04T01:53:37.628Z,100384.63
2022-11-04T01:56:14.492Z,100381.75
2022-11-04T01:58:49.059Z,100385.03
2022-11-04T02:01:15.964Z,100380.41
2022-11-04T02:04:22.089Z,100389.75
2022-11-04T02:06:51.311Z,100385.78
2022-11-04T02:09:19.963Z,100386.91
2022-11-04T02:12:05.069Z,100403.63
2022-11-04T02:14:34.490Z,100405.22
2022-11-04T02:17:32.968Z,100402.56
2022-11-04T02:20:20.899Z,100412.38
2022-11-04T02:23:10.384Z,100409.84
2022-11-04T02:26:31.217Z,100418.41
2022-11-04T02:29:14.371Z,100427.75
2022-11-04T02:32:23.062Z,100436.81
2022-11-04T02:35:07.103Z,100442.72
2022-11-04T02:37:45.155Z,100442.22
2022-11-04T02:40:57.724Z,100440.66
2022-11-04T02:44:25.474Z,100456.38
2022-11-04T02:47:00.218Z,100458.25
2022-11-04T02:49:34.794Z,100459.13
2022-11-04T02:52:07.071Z,100459.41
2022-11-04T02:54:40.527Z,100472.19
2022-11-04T02:57:12.614Z,100467.94
2022-11-04T02:59:46.811Z,100469.81
2022-11-04T03:02:22.475Z,100466.09
2022-11-04T03:04:52.514Z,100468.75
2022-11-04T03:07:24.587Z,100477.00
2022-11-04T03:09:56.485Z,100474.63
2022-11-04T03:12:28.666Z,100484.47
2022-11-04T03:15:02.104Z,100485.56
2022-11-04T03:17:37.423Z,100486.34
2022-11-04T03:20:12.356Z,100481.53
2022-11-04T03:22:39.344Z,100486.03
2022-11-04T03:25:09.145Z,100490.56
2022-11-04T03:27:45.477Z,100495.13
2022-11-04T03:32:58.940Z,100494.41
2022-11-04T03:35:27.407Z,100508.78
2022-11-04T03:37:54.002Z,100514.97
2022-11-04T03:40:22.062Z,100518.19
2022-11-04T03:42:57.294Z,100509.16
2022-11-04T03:45:24.605Z,100507.56
2022-11-04T03:47:51.721Z,100520.06
2022-11-04T03:50:26.530Z,100533.91
2022-11-04T03:52:53.457Z,100521.78
2022-11-04T03:55:20.402Z,100527.47
2022-11-04T03:57:59.008Z,100528.63
2022-11-04T04:00:29.575Z,100530.28
2022-11-04T04:03:02.896Z,100523.13
2022-11-04T04:05:43.741Z,100523.66
2022-11-04T04:08:38.551Z,100529.25
2022-11-04T04:11:20.096Z,100529.06
2022-11-04T04:14:01.170Z,100532.88
2022-11-04T04:16:33.247Z,100537.94
2022-11-04T04:19:06.272Z,100541.66
2022-11-04T04:21:40.463Z,100543.03
2022-11-04T04:24:29.474Z,100550.50
2022-11-04T04:27:16.324Z,100550.56
2022-11-04T04:29:45.712Z,100551.34
2022-11-04T04:32:14.350Z,100546.06
2022-11-04T04:34:40.841Z,100547.34
2022-11-04T04:37:21.212Z,100548.94
2022-11-04T04:40:18.425Z,100556.91
2022-11-04T04:43:06.414Z,100553.44
2022-11-04T04:45:37.988Z,100569.34
2022-11-04T04:48:05.768Z,100564.03
2022-11-04T04:50:37.270Z,100564.03
2022-11-04T04:53:06.305Z,100561.38
2022-11-04T04:55:37.533Z,100563.25
2022-11-04T04:58:07.461Z,100573.69
2022-11-04T05:00:34.019Z,100576.88
2022-11-04T05:03:00.487Z,100576.38
2022-11-04T05:05:27.194Z,100578.03
2022-11-04T05:07:53.898Z,100575.66
2022-11-04T05:10:20.943Z,100584.41
2022-11-04T05:13:05.774Z,100575.94
2022-11-04T05:15:32.597Z,100594.28
2022-11-04T05:18:01.120Z,100595.94
2022-11-04T05:20:29.071Z,100590.91
2022-11-04T05:22:55.946Z,100592.78
2022-11-04T05:25:22.374Z,100585.38
2022-11-04T05:27:48.850Z,100586.72
2022-11-04T05:30:15.397Z,100601.84
2022-11-04T05:32:41.939Z,100597.66
2022-11-04T05:35:08.754Z,100603.50
2022-11-04T05:37:35.217Z,100606.72
2022-11-04T05:40:01.856Z,100607.00
2022-11-04T05:42:29.502Z,100608.06
2022-11-04T05:44:57.032Z,100617.09
2022-11-04T05:47:23.776Z,100615.00
2022-11-04T05:49:50.270Z,100616.63
2022-11-04T05:52:16.912Z,100615.09
2022-11-04T05:54:43.370Z,100616.22
2022-11-04T05:57:11.247Z,100621.00
2022-11-04T05:59:37.821Z,100633.47
2022-11-04T06:02:04.729Z,100635.41
2022-11-04T06:04:31.450Z,100643.91
2022-11-04T06:06:58.076Z,100652.94
2022-11-04T06:09:38.952Z,100653.47
2022-11-04T06:12:11.063Z,100660.13
2022-11-04T06:14:37.639Z,100663.84
2022-11-04T06:17:04.318Z,100663.06
2022-11-04T06:19:30.864Z,100665.19
2022-11-04T06:21:57.355Z,100672.91
2022-11-04T06:24:23.889Z,100670.25
2022-11-04T06:26:50.311Z,100675.34
2022-11-04T06:29:16.847Z,100668.69
2022-11-04T06:31:43.404Z,100671.34
2022-11-04T06:34:09.871Z,100670.56
2022-11-04T06:36:36.612Z,100676.44
2022-11-04T06:39:05.605Z,100684.91
2022-11-04T06:41:32.320Z,100677.81
2022-11-04T06:43:58.915Z,100683.38
2022-11-04T06:46:33.294Z,100686.59
2022-11-04T06:48:59.920Z,100687.91
2022-11-04T06:51:27.121Z,100687.38
2022-11-04T06:53:54.653Z,100689.78
2022-11-04T06:56:21.322Z,100690.03
2022-11-04T06:58:49.368Z,100698.00
2022-11-04T07:01:21.446Z,100693.78
2022-11-04T07:03:52.728Z,100703.28
2022-11-04T07:06:20.023Z,100697.47
2022-11-04T07:08:48.198Z,100700.38
2022-11-04T07:11:16.114Z,100702.00
2022-11-04T07:13:42.886Z,100701.22
2022-11-04T07:16:10.188Z,100700.69
2022-11-04T07:18:37.052Z,100699.91
2022-11-04T07:21:09.626Z,100700.16
2022-11-04T07:23:36.885Z,100709.69
2022-11-04T07:26:06.215Z,100707.81
2022-11-04T07:28:34.820Z,100713.63
2022-11-04T07:31:06.313Z,100716.81
2022-11-04T07:33:33.925Z,100716.03
2022-11-04T07:36:05.406Z,100719.44
2022-11-04T07:38:32.148Z,100719.44
2022-11-04T07:40:59.178Z,100728.94
2022-11-04T07:43:25.971Z,100738.19
2022-11-04T07:46:08.667Z,100733.66
2022-11-04T07:48:36.691Z,100731.47
2022-11-04T07:51:04.994Z,100725.84
2022-11-04T07:53:31.813Z,100725.56
2022-11-04T07:55:59.051Z,100739.84
2022-11-04T07:58:26.040Z,100727.06
2022-11-04T08:01:00.153Z,100739.16
2022-11-04T08:03:27.184Z,100745.72
2022-11-04T08:06:01.771Z,100751.53
2022-11-04T08:08:29.028Z,100762.59
2022-11-04T08:11:05.721Z,100767.06
2022-11-04T08:13:37.572Z,100775.25
2022-11-04T08:16:12.493Z,100769.13
2022-11-04T08:18:39.918Z,100774.66
2022-11-04T08:21:07.333Z,100769.28
2022-11-04T08:23:35.394Z,100773.47
2022-11-04T08:26:09.911Z,100772.88
2022-11-04T08:28:37.243Z,100781.59
2022-11-04T08:31:09.218Z,100782.88
2022-11-04T08:33:36.623Z,100794.53
2022-11-04T08:36:09.381Z,100791.53
2022-11-04T08:38:36.706Z,100802.91
2022-11-04T08:41:06.146Z,100793.03
2022-11-04T08:43:34.346Z,100803.31
2022-11-04T08:46:02.035Z,100809.38
2022-11-04T08:48:28.636Z,100809.56
2022-11-04T08:50:59.097Z,100817.00
2022-11-04T08:53:26.172Z,100825.47
2022-11-04T08:55:52.985Z,100824.91
2022-11-04T08:58:23.619Z,100836.38
2022-11-04T09:00:50.596Z,100832.66
2022-11-04T09:03:17.541Z,100829.66
2022-11-04T09:05:47.557Z,100831.47
2022-11-04T09:08:18.031Z,100834.03
2022-11-04T09:10:46.509Z,100835.59
2022-11-04T09:13:15.775Z,100822.25
2022-11-04T09:15:42.984Z,100835.47
2022-11-04T09:18:33.383Z,100838.88
2022-11-04T09:21:02.549Z,100845.72
2022-11-04T09:23:29.142Z,100852.03
2022-11-04T09:25:57.256Z,100851.41
2022-11-04T09:28:23.975Z,100856.13
2022-11-04T09:30:52.766Z,100865.06
2022-11-04T09:33:21.914Z,100875.63
2022-11-04T09:35:56.730Z,100877.94
2022-11-04T09:38:24.378Z,100866.16
2022-11-04T09:40:51.559Z,100878.25
2022-11-04T09:43:37.949Z,100871.41
2022-11-04T09:46:05.208Z,100877.34
2022-11-04T09:48:38.883Z,100869.63
2022-11-04T09:51:12.885Z,100876.81
2022-11-04T09:53:51.689Z,100887.53
2022-11-04T09:56:25.924Z,100887.94
2022-11-04T09:58:52.591Z,100884.97
2022-11-04T10:01:19.288Z,100889.44
2022-11-04T10:04:04.304Z,100893.41
2022-11-04T10:06:53.888Z,100894.69
2022-11-04T10:09:46.217Z,100900.72
2022-11-04T10:12:26.044Z,100896.88
2022-11-04T10:15:30.324Z,100906.97
2022-11-04T10:18:19.161Z,100917.84
2022-11-04T10:20:57.743Z,100919.63
2022-11-04T10:23:41.929Z,100927.84
2022-11-04T10:26:33.936Z,100930.00
2022-11-04T10:29:07.052Z,100936.13
2022-11-04T10:31:37.584Z,100924.19
2022-11-04T10:34:09.149Z,100931.06
2022-11-04T10:36:38.119Z,100936.91
2022-11-04T10:39:17.135Z,100935.53
2022-11-04T10:41:46.557Z,100934.63
2022-11-04T10:44:33.123Z,100928.94
2022-11-04T10:47:04.988Z,100939.78
2022-11-04T10:53:19.539Z,100936.44
2022-11-04T10:55:55.008Z,100942.19
2022-11-04T10:58:29.012Z,100941.59
2022-11-04T11:00:59.965Z,100959.06
2022-11-04T11:03:32.604Z,100965.88
2022-11-04T11:06:23.042Z,100965.69
2022-11-04T11:08:49.904Z,100974.69
2022-11-04T11:11:34.259Z,100980.53
2022-11-04T11:14:00.789Z,100987.75
2022-11-04T11:16:28.229Z,100986.84
2022-11-04T11:19:21.051Z,100980.44
2022-11-04T11:21:49.976Z,100985.94
2022-11-04T11:24:26.027Z,100989.41
2022-11-04T11:27:00.941Z,100982.69
2022-11-04T11:29:31.463Z,100977.03
2022-11-04T11:32:00.924Z,100968.94
2022-11-04T11:34:32.987Z,100973.69
2022-11-04T11:37:05.256Z,100973.28
2022-11-04T11:39:35.172Z,100966.38
2022-11-04T11:42:07.615Z,100980.50
2022-11-04T11:44:44.622Z,100976.94
2022-11-04T11:47:29.220Z,100978.44
2022-11-04T11:50:07.888Z,100982.66
2022-11-04T11:52:39.761Z,100982.53
2022-11-04T11:55:31.369Z,100998.75
2022-11-04T12:01:39.109Z,100981.53
2022-11-04T12:10:56.650Z,100996.88
2022-11-04T12:13:37.953Z,100999.56
2022-11-04T12:16:10.924Z,101001.81
2022-11-04T12:18:49.551Z,101013.97
2022-11-04T12:21:27.172Z,101004.88
2022-11-04T12:24:03.882Z,100996.03
2022-11-04T12:26:40.409Z,101003.19
2022-11-04T12:29:29.769Z,101008.41
2022-11-04T12:32:15.911Z,101014.22
2022-11-04T12:35:19.175Z,101013.88
2022-11-04T12:37:54.250Z,101012.97
2022-11-04T12:40:27.932Z,101018.97
2022-11-04T12:43:21.291Z,101034.53
2022-11-04T12:46:03.954Z,101029.66
2022-11-04T12:48:57.399Z,101038.75
2022-11-04T12:51:45.766Z,101047.56
2022-11-04T12:54:37.183Z,101045.50
2022-11-04T12:57:18.744Z,101048.66
2022-11-04T13:00:02.185Z,101046.00
2022-11-04T13:02:35.258Z,101045.44
2022-11-04T13:05:25.920Z,101047.50
2022-11-04T13:08:14.101Z,101049.25
2022-11-04T13:10:48.312Z,101066.47
2022-11-04T13:13:18.489Z,101055.59
2022-11-04T13:15:54.346Z,101051.34
2022-11-04T13:18:26.359Z,101059.44
2022-11-04T13:21:07.142Z,101064.78
2022-11-04T13:23:45.447Z,101073.63
2022-11-04T13:26:15.570Z,101075.59
2022-11-04T13:28:43.897Z,101071.53
2022-11-04T13:31:30.617Z,101080.81
2022-11-04T13:34:23.173Z,101091.44
2022-11-04T13:37:00.927Z,101096.56
2022-11-04T13:39:34.089Z,101114.56
2022-11-04T13:42:22.504Z,101120.44
2022-11-04T13:44:52.629Z,101124.06
2022-11-04T13:47:27.770Z,101133.34
2022-11-04T13:49:56.071Z,101132.16
2022-11-04T13:52:29.655Z,101135.50
2022-11-04T13:55:04.221Z,101142.22
2022-11-04T13:57:34.807Z,101139.06
2022-11-04T14:00:13.560Z,101145.47
2022-11-04T14:02:40.291Z,101150.91
2022-11-04T14:05:31.268Z,101151.97
2022-11-04T14:08:00.815Z,101158.59
2022-11-04T14:10:49.811Z,101153.13
2022-11-04T14:13:28.479Z,101155.13
2022-11-04T14:16:05.274Z,101158.09
2022-11-04T14:18:34.545Z,101151.56
2022-11-04T14:21:02.458Z,101157.91
2022-11-04T14:23:29.889Z,101154.63
2022-11-04T14:26:05.526Z,101154.72
2022-11-04T14:28:34.104Z,101160.97
2022-11-04T14:31:06.151Z,101166.25
2022-11-04T14:33:36.961Z,101169.91
2022-11-04T14:36:38.744Z,101168.22
2022-11-04T14:39:10.845Z,101167.03
2022-11-04T14:41:42.997Z,101169.81
2022-11-04T14:44:21.628Z,101182.38
2022-11-04T14:46:51.752Z,101189.50
2022-11-04T14:49:40.104Z,101195.63
2022-11-04T14:52:19.579Z,101200.72
2022-11-04T14:54:47.414Z,101202.91
2022-11-04T14:57:22.371Z,101205.38
2022-11-04T14:59:52.135Z,101201.94
2022-11-04T15:02:23.954Z,101209.44
2022-11-04T15:04:58.899Z,101211.59
2022-11-04T15:07:32.907Z,101217.34
2022-11-04T15:09:59.670Z,101229.41
2022-11-04T15:12:44.486Z,101227.00
2022-11-04T15:15:41.571Z,101234.75
2022-11-04T15:18:14.011Z,101232.63
2022-11-04T15:20:49.145Z,101233.50
2022-11-04T15:23:22.844Z,101239.44
2022-11-04T15:25:50.097Z,101251.78
2022-11-04T15:28:34.639Z,101258.78
2022-11-04T15:31:13.283Z,101262.28
2022-11-04T15:33:43.671Z,101262.88
2022-11-04T15:36:17.542Z,101266.91
2022-11-04T15:38:49.852Z,101268.50
2022-11-04T15:41:42.643Z,101267.19
2022-11-04T15:44:29.050Z,101266.19
2022-11-04T15:46:58.528Z,101265.97
2022-11-04T15:49:28.457Z,101270.59
2022-11-04T15:52:01.074Z,101275.75
2022-11-04T15:54:32.059Z,101270.22
2022-11-04T15:57:03.241Z,101276.38
2022-11-04T15:59:33.632Z,101276.97
2022-11-04T16:02:02.304Z,101276.75
2022-11-04T16:04:29.684Z,101281.56
2022-11-04T16:07:37.329Z,101283.72
2022-11-04T16:10:25.951Z,101295.25
2022-11-04T16:13:18.592Z,101297.97
2022-11-04T16:15:55.268Z,101294.56
2022-11-04T16:18:24.137Z,101303.13
2022-11-04T16:20:54.310Z,101310.91
2022-11-04T16:23:23.783Z,101304.56
2022-11-04T16:26:06.261Z,101302.72
2022-11-04T16:28:38.108Z,101302.75
2022-11-04T16:31:22.555Z,101306.53
2022-11-04T16:33:50.539Z,101317.25
2022-11-04T16:36:23.703Z,101314.63
2022-11-04T16:38:58.237Z,101321.84
2022-11-04T16:41:27.459Z,101329.91
2022-11-04T16:43:55.194Z,101337.66
2022-11-04T16:46:22.308Z,101337.13
2022-11-04T16:48:49.796Z,101337.13
2022-11-04T16:51:21.976Z,101343.03
2022-11-04T16:53:50.639Z,101342.78
2022-11-04T16:56:19.304Z,101348.63
2022-11-04T16:58:46.073Z,101349.72
2022-11-04T17:01:13.883Z,101350.25
2022-11-04T17:03:43.189Z,101347.84
2022-11-04T17:06:12.983Z,101358.25
2022-11-04T17:08:40.227Z,101356.94
2022-11-04T17:11:09.149Z,101366.75
2022-11-04T17:13:36.770Z,101364.88
2022-11-04T17:16:04.723Z,101363.03
2022-11-04T17:18:32.642Z,101367.25
2022-11-04T17:21:01.356Z,101372.34
2022-11-04T17:23:27.798Z,101378.50
2022-11-04T17:25:54.622Z,101382.00
2022-11-04T17:28:21.249Z,101387.59
2022-11-04T17:30:47.793Z,101388.38
2022-11-04T17:33:17.233Z,101397.72
2022-11-04T17:35:46.599Z,101402.22
2022-11-04T17:38:13.638Z,101403.03
2022-11-04T17:41:15.924Z,101402.22
2022-11-04T17:44:01.056Z,101408.38
2022-11-04T17:46:35.186Z,101405.72
2022-11-04T17:49:04.392Z,101395.31
2022-11-04T17:51:31.903Z,101414.25
2022-11-04T17:53:58.579Z,101404.16
2022-11-04T17:56:25.463Z,101416.16
2022-11-04T17:58:53.404Z,101407.63
2022-11-04T18:01:22.337Z,101405.25
2022-11-04T18:03:52.380Z,101412.44
2022-11-04T18:06:20.579Z,101416.41
2022-11-04T18:08:47.344Z,101426.00
2022-11-04T18:11:35.151Z,101424.91
2022-11-04T18:14:02.070Z,101427.06
2022-11-04T18:16:28.980Z,101431.63
2022-11-04T18:18:58.362Z,101434.84
2022-11-04T18:21:25.469Z,101439.09
2022-11-04T18:23:52.082Z,101446.53
2022-11-04T18:26:19.118Z,101446.78
2022-11-04T18:28:45.743Z,101443.34
2022-11-04T18:31:19.957Z,101439.63
2022-11-04T18:33:46.750Z,101448.41
2022-11-04T18:36:13.539Z,101444.69
2022-11-04T18:38:40.533Z,101454.28
2022-11-04T18:41:07.131Z,101455.91
2022-11-04T18:43:34.164Z,101461.00
2022-11-04T18:46:11.497Z,101465.53
2022-11-04T18:48:38.964Z,101468.44
2022-11-04T18:51:08.222Z,101475.38
2022-11-04T18:53:35.840Z,101472.72
2022-11-04T18:56:10.937Z,101483.13
2022-11-04T18:58:39.520Z,101477.28
2022-11-04T19:01:19.313Z,101487.13
2022-11-04T19:03:46.654Z,101482.06
2022-11-04T19:06:17.140Z,101479.16
2022-11-04T19:08:46.683Z,101481.56
2022-11-04T19:11:19.384Z,101491.94
2022-11-04T19:13:58.806Z,101492.50
2022-11-04T19:16:26.529Z,101497.28
2022-11-04T19:18:54.855Z,101506.31
2022-11-04T19:21:23.615Z,101503.13
2022-11-04T19:23:50.489Z,101498.06
2022-11-04T19:26:24.358Z,101498.59
2022-11-04T19:29:01.682Z,101502.31
2022-11-04T19:31:30.173Z,101507.63
2022-11-04T19:34:04.137Z,101507.63
2022-11-04T19:36:33.065Z,101506.56
2022-11-04T19:38:59.586Z,101515.06
2022-11-04T19:41:44.858Z,101519.31
2022-11-04T19:44:14.663Z,101516.13
2022-11-04T19:46:41.870Z,101518.78
2022-11-04T19:49:09.587Z,101520.41
2022-11-04T19:51:37.232Z,101525.97
2022-11-04T19:54:04.337Z,101521.44
2022-11-04T19:56:33.472Z,101529.44
2022-11-04T19:59:05.799Z,101529.16
2022-11-04T20:01:34.410Z,101537.94
2022-11-04T20:04:02.578Z,101532.88
2022-11-04T20:06:29.541Z,101528.63
2022-11-04T20:08:56.035Z,101536.09
2022-11-04T20:11:23.352Z,101541.91
2022-11-04T20:13:50.112Z,101538.72
2022-11-04T20:16:17.059Z,101542.44
2022-11-04T20:18:45.199Z,101545.66
2022-11-04T20:21:16.105Z,101545.91
2022-11-04T20:23:42.863Z,101550.41
2022-11-04T20:26:20.484Z,101554.38
2022-11-04T20:28:48.044Z,101560.75
2022-11-04T20:31:25.598Z,101567.94
2022-11-04T20:33:53.411Z,101573.47
2022-11-04T20:36:23.019Z,101573.22
2022-11-04T20:38:49.511Z,101572.41
2022-11-04T20:41:19.977Z,101582.00
2022-11-04T20:43:48.103Z,101585.97
2022-11-04T20:46:22.344Z,101594.72
2022-11-04T20:48:50.310Z,101597.38
2022-11-04T20:51:22.727Z,101598.75
2022-11-04T20:53:55.980Z,101610.16
2022-11-04T20:56:25.249Z,101611.19
2022-11-04T20:58:57.725Z,101611.19
2022-11-04T21:01:29.563Z,101609.06
2022-11-04T21:04:00.971Z,101609.03
2022-11-04T21:06:28.397Z,101618.06
2022-11-04T21:08:56.198Z,101612.72
2022-11-04T21:11:27.476Z,101625.47
2022-11-04T21:13:56.981Z,101625.69
2022-11-04T21:16:24.790Z,101631.22
2022-11-04T21:18:51.272Z,101632.78
2022-11-04T21:21:18.297Z,101637.50
2022-11-04T21:23:46.703Z,101638.81
2022-11-04T21:26:21.926Z,101630.78
2022-11-04T21:28:52.762Z,101634.97
2022-11-04T21:31:19.474Z,101642.34
2022-11-04T21:33:46.059Z,101648.91
2022-11-04T21:36:13.228Z,101654.69
2022-11-04T21:38:43.254Z,101661.25
2022-11-04T21:41:14.544Z,101660.16
2022-11-04T21:43:41.475Z,101659.88
2022-11-04T21:46:13.803Z,101668.31
2022-11-04T21:48:41.565Z,101678.66
2022-11-04T21:51:13.419Z,101677.22
2022-11-04T21:53:41.031Z,101681.09
2022-11-04T21:56:10.910Z,101681.84
2022-11-04T21:58:38.237Z,101682.91
2022-11-04T22:01:07.228Z,101682.34
2022-11-04T22:03:34.373Z,101693.44
2022-11-04T22:06:04.885Z,101700.06
2022-11-04T22:08:32.527Z,101697.09
2022-11-04T22:11:13.981Z,101699.19
2022-11-04T22:13:41.347Z,101711.09
2022-11-04T22:16:19.474Z,101699.38
2022-11-04T22:18:46.866Z,101710.47
2022-11-04T22:21:16.202Z,101709.13
2022-11-04T22:23:43.494Z,101704.63
2022-11-04T22:26:17.464Z,101689.78
2022-11-04T22:28:44.018Z,101687.38
2022-11-04T22:31:15.453Z,101689.78
2022-11-04T22:33:42.408Z,101695.31
2022-11-04T22:36:10.421Z,101709.63
2022-11-04T22:38:38.635Z,101708.75
2022-11-04T22:41:06.671Z,101709.78
2022-11-04T22:43:33.516Z,101722.25
2022-11-04T22:46:06.854Z,101722.47
2022-11-04T22:48:34.551Z,101726.75
2022-11-04T22:51:00.985Z,101718.56
2022-11-04T22:53:27.901Z,101717.25
2022-11-04T22:55:54.472Z,101716.19
2022-11-04T22:58:21.041Z,101717.03
2022-11-04T23:00:57.338Z,101708.00
2022-11-04T23:03:24.334Z,101712.28
2022-11-04T23:05:55.515Z,101703.28
2022-11-04T23:08:22.432Z,101718.94
2022-11-04T23:11:07.638Z,101722.38
2022-11-04T23:13:53.028Z,101721.56
2022-11-04T23:17:01.703Z,101718.13
2022-11-04T23:19:30.858Z,101721.34
2022-11-04T23:22:16.261Z,101717.06
2022-11-04T23:25:01.527Z,101719.47
2022-11-04T23:27:46.661Z,101729.84
2022-11-04T23:30:25.637Z,101731.66
2022-11-04T23:32:57.810Z,101727.97
2022-11-04T23:35:46.114Z,101716.59
2022-11-04T23:38:13.019Z,101729.00
2022-11-04T23:40:39.723Z,101741.47
2022-11-04T23:43:06.674Z,101732.72
2022-11-04T23:45:52.126Z,101727.41
2022-11-04T23:48:37.304Z,101731.94
2022-11-04T23:51:22.420Z,101731.66
2022-11-04T23:54:07.406Z,101726.63
2022-11-04T23:56:52.380Z,101721.34
2022-11-04T23:59:37.944Z,101727.66
